Terminal Aerodrome Forecast
Issued by NWS

Home | Current Version | Previous Version | Text Only | Print | Product List | Glossary On
Versions: 1 2 3 4 5 6 7 8 9 10 11 12 13 14 15 16 17 18 19 20 21 22 23 24 25 26 27 28 29 30 31 32 33 34 35 36 37 38
000
FTUS43 KGRB 031137
TAFRHI
TAF
KRHI 031137Z 0312/0412 00000KT P6SM SCT002 BKN008
      TEMPO 0312/0315 3SM BR VV002
     FM031500 11005KT P6SM BKN010
     FM031800 12005KT P6SM SCT015 BKN030
     FM032200 11005KT P6SM SCT030 SCT100
     FM040600 VRB02KT 3SM BR SCT004
      TEMPO 0408/0412 1SM BR BKN004=

USA.gov is the U.S. government's official web portal to all federal, state and local government web resources and services.